createdAt,value
2018-11-10T00:01:49.282Z,26.67
2018-11-10T00:04:19.691Z,24.70
2018-11-10T00:06:47.942Z,26.43
2018-11-10T00:09:16.150Z,25.43
2018-11-10T00:11:44.535Z,27.77
2018-11-10T00:14:12.937Z,23.83
2018-11-10T00:16:41.682Z,25.47
2018-11-10T00:19:09.954Z,22.30
2018-11-10T00:21:40.591Z,21.83
2018-11-10T00:24:09.051Z,22.37
2018-11-10T00:26:37.471Z,29.27
2018-11-10T00:29:05.690Z,30.80
2018-11-10T00:31:33.988Z,29.37
2018-11-10T00:34:02.282Z,25.53
2018-11-10T00:36:30.749Z,23.53
2018-11-10T00:38:58.997Z,19.80
2018-11-10T00:41:27.440Z,21.10
2018-11-10T00:43:55.917Z,21.90
2018-11-10T00:46:24.227Z,22.47
2018-11-10T00:48:53.814Z,21.07
2018-11-10T00:51:21.980Z,20.80
2018-11-10T00:53:50.313Z,20.00
2018-11-10T00:56:18.893Z,19.40
2018-11-10T00:58:47.568Z,20.33
2018-11-10T01:01:15.824Z,21.03
2018-11-10T01:03:44.273Z,18.60
2018-11-10T01:06:18.485Z,21.60
2018-11-10T01:08:46.940Z,22.50
2018-11-10T01:11:15.157Z,20.47
2018-11-10T01:13:43.619Z,20.53
2018-11-10T01:16:13.671Z,20.70
2018-11-10T01:18:42.137Z,20.77
2018-11-10T01:21:10.306Z,50.63
2018-11-10T01:23:38.928Z,26.03
2018-11-10T01:26:07.102Z,20.13
2018-11-10T01:28:35.153Z,20.90
2018-11-10T01:31:03.547Z,19.00
2018-11-10T01:33:31.673Z,18.57
2018-11-10T01:35:59.714Z,18.70
2018-11-10T01:38:27.730Z,18.60
2018-11-10T01:40:55.801Z,20.50
2018-11-10T01:43:23.883Z,21.50
2018-11-10T01:45:51.954Z,20.00
2018-11-10T01:48:19.949Z,18.73
2018-11-10T01:50:48.079Z,19.43
2018-11-10T01:53:16.157Z,19.27
2018-11-10T01:55:44.233Z,20.70
2018-11-10T01:58:12.221Z,18.00
2018-11-10T02:00:40.244Z,20.00
2018-11-10T02:03:08.356Z,19.00
2018-11-10T02:05:36.435Z,19.43
2018-11-10T02:08:04.965Z,18.40
2018-11-10T02:10:33.008Z,20.43
2018-11-10T02:13:01.054Z,18.87
2018-11-10T02:15:29.107Z,18.67
2018-11-10T02:17:57.144Z,19.47
2018-11-10T02:20:25.232Z,21.27
2018-11-10T02:22:53.321Z,22.43
2018-11-10T02:25:21.387Z,17.93
2018-11-10T02:27:49.453Z,18.17
2018-11-10T02:30:17.523Z,27.63
2018-11-10T02:32:45.633Z,21.23
2018-11-10T02:35:13.691Z,17.23
2018-11-10T02:37:41.797Z,17.53
2018-11-10T02:40:11.179Z,20.77
2018-11-10T02:42:39.255Z,18.90
2018-11-10T02:45:07.805Z,18.07
2018-11-10T02:47:35.889Z,19.23
2018-11-10T02:50:04.433Z,19.17
2018-11-10T02:52:32.554Z,20.93
2018-11-10T02:55:00.634Z,21.33
2018-11-10T02:57:28.694Z,20.37
2018-11-10T02:59:56.732Z,23.20
2018-11-10T03:02:24.765Z,20.47
2018-11-10T03:04:52.854Z,20.97
2018-11-10T03:07:21.000Z,19.00
2018-11-10T03:09:49.061Z,19.77
2018-11-10T03:12:17.123Z,21.17
2018-11-10T03:14:45.207Z,39.30
2018-11-10T03:17:13.292Z,19.97
2018-11-10T03:19:41.355Z,18.33
2018-11-10T03:22:09.403Z,22.40
2018-11-10T03:24:37.457Z,18.20
2018-11-10T03:27:05.527Z,20.53
2018-11-10T03:29:33.576Z,20.80
2018-11-10T03:32:01.629Z,20.93
2018-11-10T03:34:29.629Z,23.27
2018-11-10T03:36:59.782Z,23.13
2018-11-10T03:39:28.133Z,17.67
2018-11-10T03:41:56.254Z,16.07
2018-11-10T03:44:24.343Z,15.83
2018-11-10T03:46:52.393Z,18.47
2018-11-10T03:49:20.479Z,17.80
2018-11-10T03:51:48.809Z,16.37
2018-11-10T03:54:16.904Z,18.80
2018-11-10T03:56:45.019Z,18.00
2018-11-10T03:59:13.070Z,16.30
2018-11-10T04:01:41.181Z,16.40
2018-11-10T04:04:09.229Z,16.93
2018-11-10T04:06:37.274Z,18.57
2018-11-10T04:09:06.273Z,19.67
2018-11-10T04:11:34.484Z,22.33
2018-11-10T04:14:02.515Z,20.63
2018-11-10T04:16:30.823Z,21.10
2018-11-10T04:18:58.938Z,21.33
2018-11-10T04:21:26.993Z,17.57
2018-11-10T04:23:55.079Z,18.40
2018-11-10T04:26:23.105Z,19.60
2018-11-10T04:28:51.179Z,17.67
2018-11-10T04:31:19.233Z,17.10
2018-11-10T04:33:47.278Z,16.97
2018-11-10T04:36:15.342Z,17.93
2018-11-10T04:38:43.387Z,16.43
2018-11-10T04:41:11.405Z,17.90
2018-11-10T04:43:39.514Z,17.57
2018-11-10T04:46:07.606Z,17.83
2018-11-10T04:48:35.615Z,19.77
2018-11-10T04:51:03.631Z,17.10
2018-11-10T04:53:32.193Z,19.37
2018-11-10T04:56:00.251Z,17.03
2018-11-10T04:58:28.324Z,16.93
2018-11-10T05:00:58.413Z,17.77
2018-11-10T05:03:26.457Z,17.33
2018-11-10T05:05:54.558Z,19.73
2018-11-10T05:08:22.634Z,17.20
2018-11-10T05:10:52.858Z,14.53
2018-11-10T05:13:20.898Z,19.50
2018-11-10T05:15:48.961Z,15.77
2018-11-10T05:18:17.042Z,18.13
2018-11-10T05:20:45.074Z,18.17
2018-11-10T05:23:13.324Z,18.87
2018-11-10T05:25:41.513Z,23.27
2018-11-10T05:28:09.641Z,20.47
2018-11-10T05:30:37.674Z,22.87
2018-11-10T05:33:06.061Z,22.43
2018-11-10T05:35:34.141Z,22.63
2018-11-10T05:38:02.269Z,21.37
2018-11-10T05:40:30.354Z,23.33
2018-11-10T05:42:58.415Z,21.37
2018-11-10T05:45:33.225Z,23.57
2018-11-10T05:48:01.267Z,25.17
2018-11-10T05:50:29.322Z,21.43
2018-11-10T05:52:57.327Z,19.23
2018-11-10T05:55:25.345Z,21.50
2018-11-10T05:58:00.194Z,24.30
2018-11-10T06:00:28.247Z,23.57
2018-11-10T06:02:56.355Z,21.90
2018-11-10T06:05:24.370Z,22.10
2018-11-10T06:07:53.534Z,21.83
2018-11-10T06:10:21.803Z,19.63
2018-11-10T06:12:49.690Z,20.47
2018-11-10T06:15:17.696Z,25.80
2018-11-10T06:17:48.950Z,20.27
2018-11-10T06:20:16.962Z,22.40
2018-11-10T06:22:45.034Z,35.57
2018-11-10T06:25:13.105Z,27.80
2018-11-10T06:27:45.349Z,21.67
2018-11-10T06:30:13.441Z,21.47
2018-11-10T06:32:41.618Z,27.40
2018-11-10T06:35:10.477Z,24.60
2018-11-10T06:37:38.865Z,27.07
2018-11-10T06:40:11.822Z,37.20
2018-11-10T06:42:40.241Z,30.83
2018-11-10T06:45:08.309Z,28.77
2018-11-10T06:47:36.749Z,33.73
2018-11-10T06:50:05.586Z,35.90
2018-11-10T06:52:33.681Z,33.73
2018-11-10T06:55:01.762Z,43.47
2018-11-10T06:57:29.794Z,34.23
2018-11-10T06:59:57.837Z,35.53
2018-11-10T07:02:25.898Z,30.73
2018-11-10T07:04:54.052Z,34.33
2018-11-10T07:07:22.138Z,33.30
2018-11-10T07:09:50.296Z,36.37
2018-11-10T07:12:18.353Z,33.20
2018-11-10T07:14:46.485Z,32.70
2018-11-10T07:17:14.528Z,38.63
2018-11-10T07:19:48.345Z,34.53
2018-11-10T07:22:16.414Z,40.90
2018-11-10T07:24:44.583Z,35.90
2018-11-10T07:27:12.502Z,46.80
2018-11-10T07:29:45.082Z,38.23
2018-11-10T07:32:13.379Z,36.17
2018-11-10T07:34:41.480Z,37.00
2018-11-10T07:37:09.555Z,36.10
2018-11-10T07:39:37.774Z,41.77
2018-11-10T07:42:10.118Z,36.30
2018-11-10T07:44:38.248Z,34.80
2018-11-10T07:47:06.360Z,36.23
2018-11-10T07:49:34.482Z,33.53
2018-11-10T07:52:02.647Z,33.97
2018-11-10T07:54:30.841Z,30.20
2018-11-10T07:57:06.599Z,30.13
2018-11-10T07:59:34.646Z,31.73
2018-11-10T08:02:02.792Z,31.97
2018-11-10T08:04:36.429Z,37.37
2018-11-10T08:07:04.762Z,29.40
2018-11-10T08:09:34.105Z,40.43
2018-11-10T08:12:02.449Z,30.80
2018-11-10T08:14:31.573Z,33.90
2018-11-10T08:17:00.675Z,39.83
2018-11-10T08:19:28.834Z,50.17
2018-11-10T08:21:57.012Z,39.70
2018-11-10T08:24:25.087Z,28.60
2018-11-10T08:26:53.222Z,53.00
2018-11-10T08:29:21.286Z,38.73
2018-11-10T08:31:49.602Z,52.73
2018-11-10T08:34:17.810Z,36.87
2018-11-10T08:36:45.901Z,27.77
2018-11-10T08:39:14.095Z,38.57
2018-11-10T08:41:42.106Z,28.33
2018-11-10T08:44:10.297Z,31.03
2018-11-10T08:46:38.320Z,29.47
2018-11-10T08:49:06.915Z,28.83
2018-11-10T08:51:34.922Z,27.53
2018-11-10T08:54:02.981Z,27.00
2018-11-10T08:56:31.005Z,29.23
2018-11-10T08:58:59.190Z,30.30
2018-11-10T09:01:27.178Z,30.60
2018-11-10T09:03:55.202Z,28.53
2018-11-10T09:06:23.285Z,28.27
2018-11-10T09:08:51.410Z,33.90
2018-11-10T09:11:19.763Z,48.60
2018-11-10T09:13:47.865Z,29.40
2018-11-10T09:16:15.965Z,30.23
2018-11-10T09:18:44.030Z,22.63
2018-11-10T09:21:12.096Z,28.50
2018-11-10T09:23:40.123Z,22.00
2018-11-10T09:26:15.078Z,30.37
2018-11-10T09:28:43.957Z,25.23
2018-11-10T09:31:15.527Z,26.00
2018-11-10T09:33:43.691Z,21.43
2018-11-10T09:36:12.076Z,19.40
2018-11-10T09:38:40.179Z,27.67
2018-11-10T09:41:09.240Z,21.03
2018-11-10T09:43:37.340Z,20.80
2018-11-10T09:46:05.908Z,19.40
2018-11-10T09:48:33.979Z,26.20
2018-11-10T09:51:02.365Z,19.30
2018-11-10T09:53:30.499Z,19.50
2018-11-10T09:56:02.667Z,19.60
2018-11-10T09:58:37.767Z,23.30
2018-11-10T10:01:05.964Z,21.30
2018-11-10T10:03:34.223Z,24.03
2018-11-10T10:06:02.541Z,21.73
2018-11-10T10:08:31.139Z,21.53
2018-11-10T10:11:00.518Z,24.13
2018-11-10T10:13:29.909Z,21.07
2018-11-10T10:15:58.049Z,29.57
2018-11-10T10:18:26.142Z,24.20
2018-11-10T10:20:54.740Z,30.20
2018-11-10T10:23:23.558Z,25.87
2018-11-10T10:26:05.855Z,27.63
2018-11-10T10:28:35.092Z,25.83
2018-11-10T10:31:16.663Z,38.87
2018-11-10T10:33:46.472Z,45.63
2018-11-10T10:36:23.233Z,22.40
2018-11-10T10:38:56.661Z,22.67
2018-11-10T10:41:29.720Z,28.77
2018-11-10T10:44:03.008Z,23.50
2018-11-10T10:46:35.789Z,23.77
2018-11-10T10:49:04.830Z,27.30
2018-11-10T10:51:38.096Z,28.33
2018-11-10T10:54:12.729Z,23.57
2018-11-10T10:56:42.094Z,23.03
2018-11-10T10:59:13.896Z,25.13
2018-11-10T11:01:47.546Z,24.57
2018-11-10T11:04:21.521Z,29.70
2018-11-10T11:06:49.712Z,30.67
2018-11-10T11:09:19.006Z,29.30
2018-11-10T11:11:47.273Z,21.07
2018-11-10T11:14:21.182Z,26.03
2018-11-10T11:16:49.241Z,34.37
2018-11-10T11:19:17.306Z,24.80
2018-11-10T11:21:45.450Z,30.47
2018-11-10T11:24:13.497Z,22.87
2018-11-10T11:26:41.576Z,30.90
2018-11-10T11:29:13.943Z,28.07
2018-11-10T11:31:44.033Z,23.37
2018-11-10T11:34:23.769Z,25.03
2018-11-10T11:36:51.902Z,24.87
2018-11-10T11:39:19.866Z,35.03
2018-11-10T11:41:47.806Z,22.60
2018-11-10T11:44:15.721Z,24.93
2018-11-10T11:46:43.839Z,25.33
2018-11-10T11:49:11.939Z,23.80
2018-11-10T11:51:40.164Z,24.43
2018-11-10T11:54:08.249Z,23.57
2018-11-10T11:56:36.542Z,23.47
2018-11-10T11:59:04.769Z,22.37
2018-11-10T12:01:32.865Z,28.13
2018-11-10T12:04:01.043Z,24.00
2018-11-10T12:06:29.125Z,24.57
2018-11-10T12:08:57.170Z,25.43
2018-11-10T12:11:25.374Z,24.63
2018-11-10T12:13:53.502Z,23.57
2018-11-10T12:16:27.193Z,25.97
2018-11-10T12:18:49.746Z,23.67
2018-11-10T12:21:17.804Z,22.67
2018-11-10T12:23:46.183Z,27.37
2018-11-10T12:26:14.249Z,21.33
2018-11-10T12:28:42.453Z,26.37
2018-11-10T12:31:10.541Z,27.20
2018-11-10T12:33:39.645Z,28.17
2018-11-10T12:36:07.706Z,24.77
2018-11-10T12:38:35.809Z,23.67
2018-11-10T12:41:03.908Z,30.03
2018-11-10T12:43:32.011Z,19.17
2018-11-10T12:46:00.085Z,18.70
2018-11-10T12:48:28.277Z,20.87
2018-11-10T12:50:56.389Z,20.80
2018-11-10T12:53:24.472Z,21.37
2018-11-10T12:55:52.554Z,25.47
2018-11-10T12:58:21.107Z,17.20
2018-11-10T13:00:49.222Z,25.83
2018-11-10T13:03:17.230Z,17.13
2018-11-10T13:05:45.786Z,19.90
2018-11-10T13:08:14.050Z,18.40
2018-11-10T13:10:42.092Z,18.60
2018-11-10T13:13:10.240Z,15.97
2018-11-10T13:15:38.502Z,17.53
2018-11-10T13:18:06.639Z,16.23
2018-11-10T13:20:34.770Z,16.80
2018-11-10T13:23:02.964Z,17.17
2018-11-10T13:25:31.182Z,53.73
2018-11-10T13:27:59.306Z,15.73
2018-11-10T13:30:27.527Z,24.13
2018-11-10T13:32:55.637Z,14.60
2018-11-10T13:35:23.745Z,18.53
2018-11-10T13:37:51.954Z,18.43
2018-11-10T13:40:21.214Z,23.43
2018-11-10T13:42:49.437Z,19.87
2018-11-10T13:45:17.663Z,18.30
2018-11-10T13:47:46.240Z,17.13
2018-11-10T13:50:14.401Z,17.27
2018-11-10T13:52:43.185Z,17.37
2018-11-10T13:55:11.454Z,15.73
2018-11-10T13:57:39.718Z,18.63
2018-11-10T14:00:08.866Z,15.20
2018-11-10T14:02:37.033Z,21.33
2018-11-10T14:05:05.119Z,21.13
2018-11-10T14:07:33.221Z,15.30
2018-11-10T14:10:03.398Z,16.23
2018-11-10T14:12:31.556Z,17.57
2018-11-10T14:14:59.610Z,14.03
2018-11-10T14:17:27.724Z,16.87
2018-11-10T14:20:05.436Z,14.73
2018-11-10T14:22:34.508Z,16.07
2018-11-10T14:25:02.633Z,14.33
2018-11-10T14:27:31.234Z,12.80
2018-11-10T14:29:59.396Z,16.27
2018-11-10T14:32:27.445Z,14.23
2018-11-10T14:34:55.545Z,17.87
2018-11-10T14:37:25.553Z,13.57
2018-11-10T14:39:53.670Z,13.10
2018-11-10T14:42:21.790Z,14.40
2018-11-10T14:44:49.902Z,12.47
2018-11-10T14:47:18.846Z,12.27
2018-11-10T14:49:47.478Z,12.07
2018-11-10T14:52:18.017Z,13.47
2018-11-10T14:55:03.791Z,12.80
2018-11-10T14:57:32.267Z,13.17
2018-11-10T15:00:02.600Z,14.97
2018-11-10T15:02:49.296Z,11.30
2018-11-10T15:05:17.689Z,10.57
2018-11-10T15:07:46.142Z,19.80
2018-11-10T15:10:16.005Z,17.97
2018-11-10T15:12:45.841Z,13.10
2018-11-10T15:15:15.296Z,11.73
2018-11-10T15:17:44.025Z,30.60
2018-11-10T15:20:13.870Z,19.87
2018-11-10T15:22:48.019Z,19.40
2018-11-10T15:25:17.903Z,20.20
2018-11-10T15:27:46.193Z,16.40
2018-11-10T15:30:15.943Z,21.77
2018-11-10T15:32:46.072Z,21.77
2018-11-10T15:35:15.844Z,17.63
2018-11-10T15:37:45.552Z,16.33
2018-11-10T15:40:14.605Z,18.17
2018-11-10T15:42:42.996Z,20.77
2018-11-10T15:45:12.528Z,18.80
2018-11-10T15:47:41.326Z,26.50
2018-11-10T15:50:11.377Z,27.20
2018-11-10T15:52:39.634Z,21.90
2018-11-10T15:55:08.257Z,22.80
2018-11-10T15:57:38.624Z,21.83
2018-11-10T16:00:07.725Z,19.47
2018-11-10T16:02:35.934Z,20.80
2018-11-10T16:05:04.117Z,20.87
2018-11-10T16:07:37.672Z,20.83
2018-11-10T16:10:06.204Z,24.07
2018-11-10T16:12:35.716Z,25.57
2018-11-10T16:15:07.182Z,21.43
2018-11-10T16:17:35.244Z,18.87
2018-11-10T16:20:05.164Z,26.30
2018-11-10T16:22:33.282Z,24.47
2018-11-10T16:25:01.402Z,33.30
2018-11-10T16:27:29.470Z,21.70
2018-11-10T16:30:02.505Z,22.17
2018-11-10T16:32:30.681Z,25.73
2018-11-10T16:34:58.849Z,22.20
2018-11-10T16:37:26.957Z,27.90
2018-11-10T16:39:55.122Z,24.17
2018-11-10T16:42:24.717Z,79.30
2018-11-10T16:45:08.034Z,49.50
2018-11-10T16:47:50.704Z,44.27
2018-11-10T16:50:34.607Z,46.30
2018-11-10T16:56:15.102Z,34.43
2018-11-10T17:00:48.129Z,61.47
2018-11-10T17:09:19.825Z,33.73
2018-11-10T17:11:47.893Z,53.50
2018-11-10T17:14:20.047Z,31.67
2018-11-10T17:16:48.551Z,28.93
2018-11-10T17:19:17.642Z,25.90
2018-11-10T17:21:48.124Z,28.73
2018-11-10T17:24:16.309Z,22.63
2018-11-10T17:26:46.736Z,20.07
2018-11-10T17:29:16.167Z,22.30
2018-11-10T17:31:46.685Z,18.23
2018-11-10T17:34:34.453Z,18.43
2018-11-10T17:37:04.889Z,19.50
2018-11-10T17:39:37.997Z,32.37
2018-11-10T17:58:24.006Z,23.57
2018-11-10T18:00:54.799Z,18.97
2018-11-10T18:03:28.371Z,19.63
2018-11-10T18:05:57.469Z,19.30
2018-11-10T18:08:28.342Z,22.23
2018-11-10T18:10:59.092Z,23.37
2018-11-10T18:13:37.474Z,21.90
2018-11-10T18:16:07.287Z,22.07
2018-11-10T18:18:36.568Z,21.00
2018-11-10T18:21:08.382Z,23.23
2018-11-10T18:23:38.073Z,20.00
2018-11-10T18:26:10.120Z,28.30
2018-11-10T18:28:38.739Z,51.60
2018-11-10T18:31:07.839Z,24.07
2018-11-10T18:33:35.999Z,23.63
2018-11-10T18:36:04.131Z,22.03
2018-11-10T18:38:32.390Z,21.10
2018-11-10T18:41:00.606Z,24.17
2018-11-10T18:43:28.760Z,21.80
2018-11-10T18:45:56.908Z,15.60
2018-11-10T18:48:25.021Z,23.93
2018-11-10T18:50:53.218Z,12.77
2018-11-10T18:53:21.367Z,13.57
2018-11-10T18:55:49.475Z,12.80
2018-11-10T18:58:17.683Z,11.03
2018-11-10T19:00:45.744Z,11.33
2018-11-10T19:03:13.958Z,17.80
2018-11-10T19:05:42.050Z,15.47
2018-11-10T19:08:10.111Z,19.07
2018-11-10T19:10:38.200Z,13.13
2018-11-10T19:13:06.504Z,15.07
2018-11-10T19:15:34.568Z,16.50
2018-11-10T19:18:02.991Z,15.03
2018-11-10T19:20:31.142Z,14.67
2018-11-10T19:23:00.256Z,14.70
2018-11-10T19:25:28.329Z,22.30
2018-11-10T19:27:56.389Z,18.67
2018-11-10T19:30:24.467Z,21.73
2018-11-10T19:32:52.489Z,19.83
2018-11-10T19:35:20.656Z,23.97
2018-11-10T19:37:48.825Z,33.17
2018-11-10T19:40:16.958Z,18.37
2018-11-10T19:42:45.764Z,18.23
2018-11-10T19:45:14.045Z,19.10
2018-11-10T19:47:43.303Z,19.23
2018-11-10T19:50:11.967Z,39.90
2018-11-10T19:52:40.034Z,22.20
2018-11-10T19:55:08.957Z,23.90
2018-11-10T19:57:37.027Z,43.60
2018-11-10T20:00:07.509Z,23.50
2018-11-10T20:02:35.569Z,23.47
2018-11-10T20:05:03.649Z,23.23
2018-11-10T20:07:31.851Z,24.73
2018-11-10T20:10:03.090Z,24.10
2018-11-10T20:12:32.489Z,23.07
2018-11-10T20:15:00.598Z,31.27
2018-11-10T20:17:28.694Z,21.20
2018-11-10T20:19:57.151Z,22.83
2018-11-10T20:22:25.206Z,23.63
2018-11-10T20:24:53.286Z,26.63
2018-11-10T20:27:21.381Z,23.63
2018-11-10T20:29:49.497Z,24.17
2018-11-10T20:32:17.597Z,30.13
2018-11-10T20:34:45.730Z,25.33
2018-11-10T20:37:13.839Z,25.90
2018-11-10T20:39:41.942Z,28.23
2018-11-10T20:42:09.984Z,29.00
2018-11-10T20:44:38.268Z,27.93
2018-11-10T20:47:07.336Z,24.73
2018-11-10T20:49:35.602Z,28.00
2018-11-10T20:52:06.707Z,28.33
2018-11-10T20:54:34.766Z,28.00
2018-11-10T20:57:02.906Z,29.27
2018-11-10T20:59:30.985Z,28.63
2018-11-10T21:01:59.201Z,28.77
2018-11-10T21:04:27.306Z,26.40
2018-11-10T21:06:55.301Z,30.83
2018-11-10T21:09:23.418Z,29.73
2018-11-10T21:11:51.837Z,29.37
2018-11-10T21:14:19.912Z,32.77
2018-11-10T21:16:47.969Z,31.60
2018-11-10T21:19:16.378Z,32.30
2018-11-10T21:21:44.535Z,29.93
2018-11-10T21:24:12.626Z,33.03
2018-11-10T21:26:40.670Z,36.73
2018-11-10T21:29:08.834Z,33.57
2018-11-10T21:31:42.692Z,35.53
2018-11-10T21:34:10.803Z,35.30
2018-11-10T21:36:39.821Z,35.47
2018-11-10T21:39:08.762Z,32.40
2018-11-10T21:41:43.829Z,34.67
2018-11-10T21:44:11.899Z,32.50
2018-11-10T21:46:40.004Z,34.93
2018-11-10T21:49:08.109Z,33.20
2018-11-10T21:51:36.129Z,30.83
2018-11-10T21:54:05.249Z,32.30
2018-11-10T21:56:33.374Z,29.70
2018-11-10T21:59:02.440Z,33.97
2018-11-10T22:01:30.502Z,33.10
2018-11-10T22:03:58.864Z,31.70
2018-11-10T22:06:26.981Z,32.17
2018-11-10T22:08:55.106Z,28.83
2018-11-10T22:11:23.092Z,34.43
2018-11-10T22:13:51.145Z,34.33
2018-11-10T22:16:19.261Z,33.97
2018-11-10T22:18:47.350Z,34.33
2018-11-10T22:21:19.134Z,31.43
2018-11-10T22:23:47.224Z,31.30
2018-11-10T22:26:15.226Z,33.83
2018-11-10T22:28:43.254Z,32.60
2018-11-10T22:31:11.365Z,33.40
2018-11-10T22:33:39.506Z,36.03
2018-11-10T22:36:07.554Z,33.97
2018-11-10T22:38:35.641Z,34.77
2018-11-10T22:41:06.967Z,33.80
2018-11-10T22:43:35.041Z,38.27
2018-11-10T22:46:04.210Z,41.37
2018-11-10T22:48:32.281Z,37.30
2018-11-10T22:51:00.348Z,37.73
2018-11-10T22:53:28.460Z,37.73
2018-11-10T22:55:56.581Z,36.83
2018-11-10T22:58:24.634Z,41.70
2018-11-10T23:00:59.444Z,37.63
2018-11-10T23:03:33.594Z,33.43
2018-11-10T23:06:01.641Z,32.97
2018-11-10T23:08:30.849Z,36.27
2018-11-10T23:11:03.275Z,31.97
2018-11-10T23:13:31.350Z,30.33
2018-11-10T23:16:00.610Z,25.80
2018-11-10T23:18:28.814Z,27.20
2018-11-10T23:21:02.974Z,26.33
2018-11-10T23:23:31.570Z,25.93
2018-11-10T23:25:59.676Z,23.57
2018-11-10T23:28:32.421Z,25.40
2018-11-10T23:31:00.629Z,24.97
2018-11-10T23:33:28.719Z,23.80
2018-11-10T23:35:57.040Z,22.00
2018-11-10T23:38:25.068Z,20.83
2018-11-10T23:40:53.190Z,25.07
2018-11-10T23:43:21.215Z,22.57
2018-11-10T23:45:49.371Z,25.33
2018-11-10T23:48:17.378Z,26.60
2018-11-10T23:50:45.472Z,25.47
2018-11-10T23:53:13.992Z,20.70
2018-11-10T23:55:42.242Z,22.93
2018-11-10T23:58:10.329Z,24.30
